createdAt,value
2022-10-23T00:00:12.250Z,98.09
2022-10-23T00:01:12.213Z,98.09
2022-10-23T00:02:12.238Z,98.09
2022-10-23T00:03:12.176Z,98.09
2022-10-23T00:04:12.165Z,98.09
2022-10-23T00:05:12.145Z,98.09
2022-10-23T00:06:12.148Z,97.99
2022-10-23T00:07:12.138Z,97.99
2022-10-23T00:08:12.105Z,97.99
2022-10-23T00:09:12.098Z,97.99
2022-10-23T00:10:12.095Z,97.99
2022-10-23T00:11:12.065Z,97.99
2022-10-23T00:12:12.077Z,97.99
2022-10-23T00:13:12.045Z,97.99
2022-10-23T00:14:12.029Z,98.09
2022-10-23T00:15:12.022Z,98.19
2022-10-23T00:16:12.015Z,98.19
2022-10-23T00:17:12.015Z,98.19
2022-10-23T00:18:11.973Z,98.19
2022-10-23T00:19:11.967Z,98.09
2022-10-23T00:20:11.953Z,98.19
2022-10-23T00:21:11.934Z,98.19
2022-10-23T00:22:11.942Z,98.19
2022-10-23T00:23:11.914Z,98.19
2022-10-23T00:24:11.920Z,98.09
2022-10-23T00:25:11.893Z,98.19
2022-10-23T00:26:11.883Z,98.19
2022-10-23T00:27:11.871Z,98.19
2022-10-23T00:28:11.852Z,98.19
2022-10-23T00:29:11.843Z,98.30
2022-10-23T00:30:11.823Z,98.39
2022-10-23T00:31:11.812Z,98.30
2022-10-23T00:32:11.813Z,98.39
2022-10-23T00:33:11.782Z,98.39
2022-10-23T00:34:11.789Z,98.30
2022-10-23T00:35:11.768Z,98.30
2022-10-23T00:36:11.761Z,98.09
2022-10-23T00:37:11.751Z,97.99
2022-10-23T00:38:11.731Z,98.03
2022-10-23T00:39:11.709Z,98.14
2022-10-23T00:40:11.710Z,98.14
2022-10-23T00:41:11.680Z,98.24
2022-10-23T00:42:11.683Z,98.34
2022-10-23T00:43:11.660Z,98.34
2022-10-23T00:44:11.650Z,98.44
2022-10-23T00:45:11.630Z,98.54
2022-10-23T00:46:11.629Z,98.54
2022-10-23T00:47:11.621Z,98.75
2022-10-23T00:48:11.599Z,98.85
2022-10-23T00:50:11.569Z,98.85
2022-10-23T00:51:11.559Z,98.95
2022-10-23T00:52:11.559Z,98.95
2022-10-23T00:53:11.527Z,98.95
2022-10-23T00:54:26.848Z,98.95
2022-10-23T00:55:12.510Z,98.95
2022-10-23T00:56:11.500Z,98.95
2022-10-23T00:57:11.487Z,98.95
2022-10-23T00:58:11.477Z,98.95
2022-10-23T00:59:11.459Z,98.95
2022-10-23T01:00:11.438Z,99.16
2022-10-23T01:01:11.514Z,99.36
2022-10-23T01:02:11.638Z,99.36
2022-10-23T01:03:11.397Z,99.46
2022-10-23T01:04:11.397Z,99.46
2022-10-23T01:05:11.376Z,99.36
2022-10-23T01:06:11.366Z,99.36
2022-10-23T01:07:11.370Z,99.36
2022-10-23T01:08:11.336Z,99.46
2022-10-23T01:09:11.326Z,99.26
2022-10-23T01:10:11.314Z,99.16
2022-10-23T01:11:11.304Z,99.05
2022-10-23T01:12:11.348Z,98.85
2022-10-23T01:13:11.265Z,98.75
2022-10-23T01:14:11.255Z,98.75
2022-10-23T01:15:11.254Z,98.75
2022-10-23T01:16:11.235Z,98.65
2022-10-23T01:17:11.235Z,98.44
2022-10-23T01:18:11.218Z,98.44
2022-10-23T01:19:11.185Z,98.44
2022-10-23T01:20:11.187Z,98.39
2022-10-23T01:21:11.164Z,98.39
2022-10-23T01:22:11.217Z,98.39
2022-10-23T01:23:11.155Z,98.49
2022-10-23T01:24:11.139Z,98.49
2022-10-23T01:25:11.114Z,98.69
2022-10-23T01:26:11.113Z,98.69
2022-10-23T01:27:11.093Z,98.69
2022-10-23T01:28:11.105Z,98.74
2022-10-23T01:29:11.063Z,98.94
2022-10-23T01:30:11.063Z,99.04
2022-10-23T01:31:11.035Z,99.15
2022-10-23T01:32:11.033Z,99.45
2022-10-23T01:33:11.023Z,99.66
2022-10-23T01:34:11.002Z,99.86
2022-10-23T01:35:10.994Z,99.96
2022-10-23T01:36:10.982Z,99.99
2022-10-23T01:37:10.953Z,99.99
2022-10-23T01:38:10.980Z,99.99
2022-10-23T01:39:10.937Z,99.99
2022-10-23T01:40:10.920Z,99.99
2022-10-23T01:41:10.902Z,99.99
2022-10-23T01:42:10.892Z,99.99
2022-10-23T01:43:10.891Z,99.99
2022-10-23T01:44:10.871Z,99.99
2022-10-23T01:45:10.857Z,99.99
2022-10-23T01:46:10.840Z,99.99
2022-10-23T01:47:10.905Z,99.99
2022-10-23T01:48:10.831Z,99.99
2022-10-23T01:49:10.810Z,99.99
2022-10-23T01:50:10.789Z,99.99
2022-10-23T01:51:10.780Z,99.99
2022-10-23T01:52:10.769Z,99.99
2022-10-23T01:53:10.771Z,99.99
2022-10-23T01:54:10.739Z,99.99
2022-10-23T01:55:10.718Z,99.99
2022-10-23T01:56:10.710Z,99.99
2022-10-23T01:57:10.699Z,99.99
2022-10-23T01:58:10.709Z,99.99
2022-10-23T01:59:10.669Z,99.99
2022-10-23T02:00:10.666Z,99.99
2022-10-23T02:01:10.749Z,99.99
2022-10-23T02:02:10.836Z,99.99
2022-10-23T02:03:10.638Z,99.99
2022-10-23T02:04:10.611Z,99.99
2022-10-23T02:05:10.602Z,99.99
2022-10-23T02:06:10.588Z,99.99
2022-10-23T02:07:10.597Z,99.99
2022-10-23T02:08:10.584Z,99.99
2022-10-23T02:09:10.546Z,99.99
2022-10-23T02:10:10.549Z,99.99
2022-10-23T02:11:10.517Z,99.99
2022-10-23T02:12:10.510Z,99.99
2022-10-23T02:13:10.507Z,99.99
2022-10-23T02:14:10.486Z,99.99
2022-10-23T02:15:10.466Z,99.99
2022-10-23T02:16:10.466Z,99.99
2022-10-23T02:17:10.446Z,99.99
2022-10-23T02:18:10.456Z,99.99
2022-10-23T02:19:10.745Z,99.99
2022-10-23T02:20:10.409Z,99.99
2022-10-23T02:21:10.388Z,99.99
2022-10-23T02:22:10.376Z,99.99
2022-10-23T02:23:10.375Z,99.99
2022-10-23T02:24:10.345Z,99.99
2022-10-23T02:25:10.337Z,99.99
2022-10-23T02:26:10.324Z,99.99
2022-10-23T02:27:10.314Z,99.99
2022-10-23T02:28:10.305Z,99.99
2022-10-23T02:29:10.304Z,99.99
2022-10-23T02:30:10.276Z,99.99
2022-10-23T02:31:10.264Z,99.99
2022-10-23T02:32:10.253Z,99.99
2022-10-23T02:33:10.273Z,99.99
2022-10-23T02:34:10.219Z,99.99
2022-10-23T02:35:10.213Z,99.99
2022-10-23T02:36:10.183Z,99.99
2022-10-23T02:37:10.211Z,99.99
2022-10-23T02:38:10.174Z,99.99
2022-10-23T02:39:10.175Z,99.99
2022-10-23T02:40:10.144Z,99.99
2022-10-23T02:41:10.122Z,99.99
2022-10-23T02:42:10.112Z,99.99
2022-10-23T02:43:10.112Z,99.99
2022-10-23T02:44:10.092Z,99.99
2022-10-23T02:45:10.083Z,99.99
2022-10-23T02:46:10.061Z,99.99
2022-10-23T02:47:10.052Z,99.99
2022-10-23T02:48:10.063Z,99.99
2022-10-23T02:49:10.021Z,99.99
2022-10-23T02:50:10.012Z,99.99
2022-10-23T02:51:10.001Z,99.99
2022-10-23T02:52:09.981Z,99.99
2022-10-23T02:53:09.980Z,99.99
2022-10-23T02:54:09.952Z,99.99
2022-10-23T02:55:09.960Z,99.99
2022-10-23T02:56:09.930Z,99.99
2022-10-23T02:57:09.931Z,99.99
2022-10-23T02:58:09.930Z,99.99
2022-10-23T02:59:09.909Z,99.99
2022-10-23T03:00:09.902Z,99.99
2022-10-23T03:01:09.962Z,99.99
2022-10-23T03:02:09.942Z,99.99
2022-10-23T03:03:09.851Z,99.99
2022-10-23T03:04:09.830Z,99.99
2022-10-23T03:05:09.812Z,99.99
2022-10-23T03:06:09.800Z,99.99
2022-10-23T03:07:09.789Z,99.99
2022-10-23T03:08:09.790Z,99.99
2022-10-23T03:09:09.768Z,99.99
2022-10-23T03:10:09.756Z,99.99
2022-10-23T03:11:09.739Z,99.99
2022-10-23T03:12:09.728Z,99.99
2022-10-23T03:13:09.731Z,99.99
2022-10-23T03:14:09.697Z,99.99
2022-10-23T03:15:09.697Z,99.99
2022-10-23T03:16:09.667Z,99.99
2022-10-23T03:17:09.679Z,99.99
2022-10-23T03:18:09.656Z,99.99
2022-10-23T03:19:09.647Z,99.99
2022-10-23T03:20:09.616Z,99.99
2022-10-23T03:21:09.607Z,99.99
2022-10-23T03:22:09.606Z,99.99
2022-10-23T03:23:09.596Z,99.99
2022-10-23T03:24:09.568Z,99.99
2022-10-23T03:25:09.564Z,99.99
2022-10-23T03:26:09.544Z,99.99
2022-10-23T03:27:09.536Z,99.99
2022-10-23T03:28:09.536Z,99.99
2022-10-23T03:29:09.511Z,99.99
2022-10-23T03:30:09.485Z,99.99
2022-10-23T03:31:09.483Z,99.99
2022-10-23T03:32:09.471Z,99.99
2022-10-23T03:33:09.459Z,99.99
2022-10-23T03:34:09.444Z,99.99
2022-10-23T03:35:09.435Z,99.99
2022-10-23T03:36:09.425Z,99.99
2022-10-23T03:37:09.404Z,99.99
2022-10-23T03:38:09.395Z,99.99
2022-10-23T03:39:09.384Z,99.99
2022-10-23T03:40:09.355Z,99.99
2022-10-23T03:41:09.351Z,99.99
2022-10-23T03:42:09.334Z,99.99
2022-10-23T03:43:09.335Z,99.99
2022-10-23T03:44:09.306Z,99.99
2022-10-23T03:45:09.314Z,99.99
2022-10-23T03:46:09.297Z,99.99
2022-10-23T03:47:09.281Z,99.99
2022-10-23T03:48:09.274Z,99.99
2022-10-23T03:49:09.254Z,99.99
2022-10-23T03:50:09.232Z,99.99
2022-10-23T03:51:09.222Z,99.99
2022-10-23T03:52:09.202Z,99.99
2022-10-23T03:53:09.213Z,99.99
2022-10-23T03:54:09.182Z,99.99
2022-10-23T03:55:09.171Z,99.99
2022-10-23T03:56:09.151Z,99.99
2022-10-23T03:57:09.142Z,99.99
2022-10-23T03:58:09.141Z,99.99
2022-10-23T03:59:09.118Z,99.99
2022-10-23T04:00:09.101Z,99.99
2022-10-23T04:01:09.153Z,99.99
2022-10-23T04:02:09.157Z,99.99
2022-10-23T04:03:09.070Z,99.99
2022-10-23T04:04:09.052Z,99.99
2022-10-23T04:05:09.040Z,99.99
2022-10-23T04:06:09.031Z,99.99
2022-10-23T04:07:09.018Z,99.99
2022-10-23T04:08:09.018Z,99.99
2022-10-23T04:09:09.042Z,99.99
2022-10-23T04:10:08.970Z,99.99
2022-10-23T04:11:08.967Z,99.99
2022-10-23T04:12:08.948Z,99.99
2022-10-23T04:13:08.949Z,99.99
2022-10-23T04:14:08.938Z,99.99
2022-10-23T04:15:08.908Z,99.99
2022-10-23T04:16:08.890Z,99.99
2022-10-23T04:17:08.888Z,99.99
2022-10-23T04:18:08.891Z,99.99
2022-10-23T04:19:08.859Z,99.99
2022-10-23T04:20:08.842Z,99.99
2022-10-23T04:21:08.832Z,99.99
2022-10-23T04:22:08.808Z,99.99
2022-10-23T04:23:08.828Z,99.99
2022-10-23T04:24:08.786Z,99.99
2022-10-23T04:25:08.780Z,99.99
2022-10-23T04:26:08.771Z,99.99
2022-10-23T04:27:08.769Z,99.99
2022-10-23T04:28:08.747Z,99.99
2022-10-23T04:29:08.727Z,99.99
2022-10-23T04:30:08.706Z,99.99
2022-10-23T04:31:08.703Z,99.99
2022-10-23T04:32:08.687Z,99.99
2022-10-23T04:33:08.697Z,99.99
2022-10-23T04:34:08.659Z,99.99
2022-10-23T04:35:08.655Z,99.99
2022-10-23T04:36:08.635Z,99.99
2022-10-23T04:37:08.626Z,99.99
2022-10-23T04:38:08.619Z,99.99
2022-10-23T04:39:08.605Z,99.99
2022-10-23T04:40:08.597Z,99.99
2022-10-23T04:41:08.585Z,99.99
2022-10-23T04:42:08.564Z,99.99
2022-10-23T04:43:08.574Z,99.99
2022-10-23T04:44:08.535Z,99.99
2022-10-23T04:45:08.531Z,99.99
2022-10-23T04:46:08.514Z,99.99
2022-10-23T04:47:08.502Z,99.99
2022-10-23T04:48:08.494Z,99.99
2022-10-23T04:49:08.474Z,99.99
2022-10-23T04:50:08.454Z,99.99
2022-10-23T04:51:08.443Z,99.99
2022-10-23T04:52:08.432Z,99.99
2022-10-23T04:53:08.441Z,99.99
2022-10-23T04:54:08.403Z,99.99
2022-10-23T04:55:08.403Z,99.99
2022-10-23T04:56:08.382Z,99.99
2022-10-23T04:57:08.381Z,99.99
2022-10-23T04:58:08.362Z,99.99
2022-10-23T04:59:08.373Z,99.99
2022-10-23T05:00:08.333Z,99.99
2022-10-23T05:01:08.422Z,99.99
2022-10-23T05:02:08.301Z,99.99
2022-10-23T05:03:08.302Z,99.99
2022-10-23T05:04:08.301Z,99.99
2022-10-23T05:05:08.281Z,99.99
2022-10-23T05:06:08.253Z,99.99
2022-10-23T05:07:08.305Z,99.99
2022-10-23T05:08:08.241Z,99.99
2022-10-23T05:09:08.220Z,99.99
2022-10-23T05:10:08.201Z,99.99
2022-10-23T05:11:08.200Z,99.99
2022-10-23T05:12:08.180Z,99.99
2022-10-23T05:13:08.180Z,99.99
2022-10-23T05:14:08.150Z,99.99
2022-10-23T05:15:08.153Z,99.99
2022-10-23T05:16:08.130Z,99.99
2022-10-23T05:17:08.129Z,99.99
2022-10-23T05:18:08.109Z,99.99
2022-10-23T05:19:08.090Z,99.99
2022-10-23T05:20:08.070Z,99.99
2022-10-23T05:21:08.070Z,99.99
2022-10-23T05:22:08.059Z,99.99
2022-10-23T05:23:08.048Z,99.99
2022-10-23T05:24:08.021Z,99.99
2022-10-23T05:25:08.019Z,99.99
2022-10-23T05:26:07.999Z,99.99
2022-10-23T05:27:07.989Z,99.99
2022-10-23T05:28:07.990Z,99.99
2022-10-23T05:29:07.967Z,99.99
2022-10-23T05:30:07.947Z,99.99
2022-10-23T05:31:07.947Z,99.99
2022-10-23T05:32:07.958Z,99.99
2022-10-23T05:33:07.918Z,99.99
2022-10-23T05:34:11.181Z,99.99
2022-10-23T05:35:08.889Z,99.99
2022-10-23T05:36:07.875Z,99.99
2022-10-23T05:37:07.878Z,99.99
2022-10-23T05:38:07.857Z,99.99
2022-10-23T05:39:07.834Z,99.99
2022-10-23T05:40:07.818Z,99.99
2022-10-23T05:41:07.818Z,99.99
2022-10-23T05:42:07.798Z,99.99
2022-10-23T05:43:07.795Z,99.99
2022-10-23T05:44:07.784Z,99.99
2022-10-23T05:45:07.766Z,99.99
2022-10-23T05:46:07.836Z,99.99
2022-10-23T05:47:07.785Z,99.99
2022-10-23T05:48:16.673Z,99.99
2022-10-23T05:49:08.747Z,99.99
2022-10-23T05:50:07.714Z,99.99
2022-10-23T05:51:07.733Z,99.99
2022-10-23T05:52:07.712Z,99.99
2022-10-23T05:53:07.733Z,99.99
2022-10-23T05:54:07.698Z,99.99
2022-10-23T05:55:07.664Z,99.88
2022-10-23T05:56:07.613Z,99.77
2022-10-23T05:57:07.759Z,99.47
2022-10-23T05:58:07.605Z,99.27
2022-10-23T05:59:07.594Z,99.06
2022-10-23T06:00:07.563Z,98.86
2022-10-23T06:01:07.669Z,98.75
2022-10-23T06:02:07.596Z,98.66
2022-10-23T06:03:07.533Z,98.50
2022-10-23T06:04:07.516Z,98.41
2022-10-23T06:05:07.505Z,98.30
2022-10-23T06:06:07.492Z,98.20
2022-10-23T06:07:07.485Z,98.10
2022-10-23T06:08:07.483Z,98.00
2022-10-23T06:09:07.452Z,98.00
2022-10-23T06:10:07.463Z,98.10
2022-10-23T06:11:07.442Z,98.14
2022-10-23T06:12:07.411Z,98.14
2022-10-23T06:13:07.423Z,98.14
2022-10-23T06:14:07.391Z,98.25
2022-10-23T06:15:07.384Z,98.35
2022-10-23T06:16:09.635Z,98.35
2022-10-23T06:17:07.350Z,98.35
2022-10-23T06:18:07.351Z,98.45
2022-10-23T06:19:07.652Z,98.55
2022-10-23T06:20:07.318Z,98.55
2022-10-23T06:21:07.300Z,98.55
2022-10-23T06:22:07.312Z,98.66
2022-10-23T06:23:07.294Z,98.66
2022-10-23T06:24:07.270Z,98.55
2022-10-23T06:25:07.249Z,98.55
2022-10-23T06:26:07.253Z,98.45
2022-10-23T06:27:07.238Z,98.45
2022-10-23T06:28:07.231Z,98.45
2022-10-23T06:29:07.199Z,98.45
2022-10-23T06:30:07.197Z,98.45
2022-10-23T06:31:07.186Z,98.45
2022-10-23T06:32:07.179Z,98.45
2022-10-23T06:33:07.170Z,98.55
2022-10-23T06:34:07.150Z,98.66
2022-10-23T06:35:07.128Z,98.66
2022-10-23T06:36:07.128Z,98.66
2022-10-23T06:37:07.106Z,98.66
2022-10-23T06:38:07.137Z,98.55
2022-10-23T06:39:07.078Z,98.55
2022-10-23T06:40:07.065Z,98.55
2022-10-23T06:41:07.065Z,98.45
2022-10-23T06:42:07.036Z,98.45
2022-10-23T06:43:07.037Z,98.45
2022-10-23T06:44:07.017Z,98.35
2022-10-23T06:45:07.431Z,98.35
2022-10-23T06:46:07.006Z,98.25
2022-10-23T06:47:06.991Z,98.25
2022-10-23T06:48:06.975Z,98.14
2022-10-23T06:49:06.969Z,97.89
2022-10-23T06:50:09.572Z,97.69
2022-10-23T06:51:06.925Z,97.60
2022-10-23T06:52:14.266Z,97.39
2022-10-23T06:53:07.915Z,97.19
2022-10-23T06:54:06.875Z,97.08
2022-10-23T06:55:06.877Z,96.88
2022-10-23T06:56:06.857Z,96.78
2022-10-23T06:57:06.845Z,96.47
2022-10-23T06:58:06.838Z,96.27
2022-10-23T06:59:06.826Z,96.02
2022-10-23T07:00:06.815Z,95.62
2022-10-23T07:01:06.900Z,95.41
2022-10-23T07:02:06.775Z,95.21
2022-10-23T07:03:06.774Z,94.90
2022-10-23T07:04:06.753Z,94.70
2022-10-23T07:05:08.781Z,94.50
2022-10-23T07:06:07.734Z,94.15
2022-10-23T07:07:06.713Z,94.05
2022-10-23T07:08:06.717Z,93.95
2022-10-23T07:09:06.683Z,93.74
2022-10-23T07:10:06.751Z,93.24
2022-10-23T07:11:06.662Z,93.13
2022-10-23T07:12:06.675Z,93.13
2022-10-23T07:13:06.656Z,92.48
2022-10-23T07:14:06.623Z,92.28
2022-10-23T07:15:06.615Z,92.38
2022-10-23T07:16:06.602Z,92.28
2022-10-23T07:17:06.592Z,92.28
2022-10-23T07:18:06.641Z,92.28
2022-10-23T07:19:06.562Z,91.97
2022-10-23T07:20:06.556Z,91.97
2022-10-23T07:21:06.541Z,91.77
2022-10-23T07:22:06.531Z,91.56
2022-10-23T07:23:06.540Z,91.26
2022-10-23T07:24:06.491Z,90.96
2022-10-23T07:25:06.493Z,91.02
2022-10-23T07:26:06.470Z,91.06
2022-10-23T07:27:06.460Z,90.92
2022-10-23T07:28:06.450Z,91.06
2022-10-23T07:29:06.420Z,90.96
2022-10-23T07:30:06.419Z,91.06
2022-10-23T07:31:06.399Z,90.81
2022-10-23T07:32:06.389Z,90.71
2022-10-23T07:33:06.387Z,90.61
2022-10-23T07:34:06.369Z,90.31
2022-10-23T07:35:06.409Z,90.51
2022-10-23T07:36:06.336Z,90.51
2022-10-23T07:37:06.329Z,90.41
2022-10-23T07:38:06.339Z,90.31
2022-10-23T07:39:06.299Z,90.20
2022-10-23T07:40:06.287Z,90.31
2022-10-23T07:41:08.929Z,90.41
2022-10-23T07:42:07.257Z,90.41
2022-10-23T07:43:06.260Z,90.11
2022-10-23T07:44:06.227Z,90.11
2022-10-23T07:45:06.220Z,90.20
2022-10-23T07:46:06.207Z,90.00
2022-10-23T07:47:06.208Z,89.80
2022-10-23T07:48:06.196Z,89.59
2022-10-23T07:49:06.166Z,89.59
2022-10-23T07:50:06.147Z,89.70
2022-10-23T07:51:06.140Z,89.65
2022-10-23T07:52:06.163Z,89.96
2022-10-23T07:53:06.126Z,89.76
2022-10-23T07:54:06.127Z,89.65
2022-10-23T07:55:06.098Z,89.55
2022-10-23T07:56:06.077Z,89.65
2022-10-23T07:57:06.057Z,89.65
2022-10-23T07:58:06.062Z,89.76
2022-10-23T07:59:06.046Z,89.76
2022-10-23T08:00:06.021Z,89.86
2022-10-23T08:01:06.049Z,89.15
2022-10-23T08:02:06.037Z,89.15
2022-10-23T08:03:05.996Z,89.45
2022-10-23T08:04:05.965Z,89.45
2022-10-23T08:05:05.947Z,89.55
2022-10-23T08:06:05.944Z,89.65
2022-10-23T08:07:05.936Z,89.76
2022-10-23T08:08:05.925Z,89.76
2022-10-23T08:09:06.817Z,89.72
2022-10-23T08:10:05.883Z,89.72
2022-10-23T08:11:05.877Z,89.72
2022-10-23T08:12:05.855Z,89.61
2022-10-23T08:13:05.864Z,89.81
2022-10-23T08:14:05.834Z,89.11
2022-10-23T08:15:05.823Z,89.01
2022-10-23T08:16:05.813Z,89.21
2022-10-23T08:17:05.824Z,89.11
2022-10-23T08:18:05.793Z,89.31
2022-10-23T08:19:05.774Z,88.96
2022-10-23T08:20:05.755Z,88.35
2022-10-23T08:21:05.742Z,88.05
2022-10-23T08:22:05.723Z,88.35
2022-10-23T08:23:05.732Z,87.85
2022-10-23T08:24:05.692Z,87.74
2022-10-23T08:25:05.682Z,87.10
2022-10-23T08:26:05.675Z,87.20
2022-10-23T08:27:05.662Z,87.30
2022-10-23T08:28:06.381Z,86.79
2022-10-23T08:29:05.640Z,86.79
2022-10-23T08:30:05.621Z,87.00
2022-10-23T08:31:05.612Z,87.51
2022-10-23T08:32:05.592Z,85.94
2022-10-23T08:33:05.591Z,85.94
2022-10-23T08:34:05.563Z,85.54
2022-10-23T08:35:05.570Z,85.13
2022-10-23T08:36:05.531Z,84.99
2022-10-23T08:37:05.520Z,85.39
2022-10-23T08:38:05.523Z,84.99
2022-10-23T08:39:05.501Z,84.08
2022-10-23T08:40:05.480Z,84.55
2022-10-23T08:41:05.470Z,84.85
2022-10-23T08:42:05.500Z,83.74
2022-10-23T08:43:05.460Z,83.64
2022-10-23T08:44:05.429Z,83.60
2022-10-23T08:45:05.419Z,83.60
2022-10-23T08:46:08.607Z,82.49
2022-10-23T08:47:05.393Z,82.95
2022-10-23T08:48:05.400Z,82.45
2022-10-23T08:49:05.388Z,82.65
2022-10-23T08:50:05.347Z,82.24
2022-10-23T08:51:05.330Z,81.74
2022-10-23T08:52:06.510Z,81.30
2022-10-23T08:53:05.320Z,80.49
2022-10-23T08:54:05.296Z,80.90
2022-10-23T08:55:05.279Z,80.69
2022-10-23T08:56:05.267Z,80.76
2022-10-23T08:57:05.258Z,80.85
2022-10-23T08:58:05.256Z,80.55
2022-10-23T08:59:05.234Z,79.74
2022-10-23T09:00:05.209Z,79.94
2022-10-23T09:01:05.323Z,80.31
2022-10-23T09:02:05.445Z,79.30
2022-10-23T09:03:05.177Z,79.71
2022-10-23T09:04:05.158Z,79.61
2022-10-23T09:05:05.148Z,79.36
2022-10-23T09:06:05.126Z,79.47
2022-10-23T09:07:05.186Z,79.16
2022-10-23T09:08:05.116Z,78.66
2022-10-23T09:09:05.099Z,78.56
2022-10-23T09:10:05.111Z,78.56
2022-10-23T09:11:05.065Z,78.56
2022-10-23T09:12:05.069Z,78.56
2022-10-23T09:13:05.057Z,77.86
2022-10-23T09:14:05.038Z,77.75
2022-10-23T09:15:05.026Z,78.26
2022-10-23T09:16:05.006Z,78.86
2022-10-23T09:17:05.046Z,79.06
2022-10-23T09:18:04.995Z,78.26
2022-10-23T09:19:06.750Z,78.63
2022-10-23T09:20:05.956Z,79.13
2022-10-23T09:21:04.925Z,78.52
2022-10-23T09:22:04.915Z,78.42
2022-10-23T09:23:04.905Z,78.02
2022-10-23T09:24:04.905Z,78.02
2022-10-23T09:25:04.874Z,77.42
2022-10-23T09:26:04.865Z,77.31
2022-10-23T09:28:05.797Z,76.40
2022-10-23T09:29:04.814Z,76.51
2022-10-23T09:30:04.813Z,77.01
2022-10-23T09:31:04.804Z,76.81
2022-10-23T09:32:04.795Z,77.51
2022-10-23T09:33:04.782Z,76.10
2022-10-23T09:34:06.438Z,76.40
2022-10-23T09:35:04.748Z,75.50
2022-10-23T09:36:04.743Z,75.80
2022-10-23T09:37:04.713Z,76.51
2022-10-23T09:38:04.733Z,76.31
2022-10-23T09:39:04.693Z,76.10
2022-10-23T09:40:04.691Z,76.31
2022-10-23T09:41:04.683Z,75.90
2022-10-23T09:42:04.653Z,75.70
2022-10-23T09:43:04.654Z,76.10
2022-10-23T09:44:04.632Z,76.10
2022-10-23T09:45:04.615Z,74.59
2022-10-23T09:46:04.610Z,74.99
2022-10-23T09:47:04.587Z,74.49
2022-10-23T09:48:04.583Z,74.90
2022-10-23T09:49:05.794Z,75.20
2022-10-23T09:50:04.553Z,74.49
2022-10-23T09:51:04.540Z,74.49
2022-10-23T09:52:04.531Z,74.55
2022-10-23T09:53:04.543Z,74.76
2022-10-23T09:54:04.511Z,74.96
2022-10-23T09:55:04.489Z,74.96
2022-10-23T09:56:04.475Z,74.66
2022-10-23T09:57:04.461Z,74.96
2022-10-23T09:58:04.461Z,74.26
2022-10-23T09:59:04.441Z,74.55
2022-10-23T10:00:04.420Z,74.66
2022-10-23T10:01:04.488Z,73.95
2022-10-23T10:02:04.540Z,74.15
2022-10-23T10:03:04.383Z,73.95
2022-10-23T10:04:04.401Z,74.76
2022-10-23T10:05:04.359Z,74.35
2022-10-23T10:06:04.438Z,74.46
2022-10-23T10:07:04.460Z,74.86
2022-10-23T10:08:04.400Z,74.46
2022-10-23T10:09:04.409Z,74.26
2022-10-23T10:10:04.380Z,73.85
2022-10-23T10:11:04.281Z,73.85
2022-10-23T10:12:04.281Z,73.75
2022-10-23T10:13:04.253Z,73.61
2022-10-23T10:14:04.250Z,73.82
2022-10-23T10:15:04.239Z,72.91
2022-10-23T10:16:04.219Z,73.61
2022-10-23T10:17:04.210Z,72.81
2022-10-23T10:18:04.200Z,73.52
2022-10-23T10:19:04.188Z,73.72
2022-10-23T10:20:06.905Z,72.81
2022-10-23T10:21:04.148Z,72.77
2022-10-23T10:22:04.139Z,73.08
2022-10-23T10:23:04.144Z,72.97
2022-10-23T10:24:04.139Z,73.48
2022-10-23T10:25:04.109Z,73.88
2022-10-23T10:26:04.098Z,73.28
2022-10-23T10:27:04.081Z,73.38
2022-10-23T10:28:04.079Z,72.77
2022-10-23T10:29:04.057Z,72.77
2022-10-23T10:30:04.038Z,73.18
2022-10-23T10:31:04.019Z,73.38
2022-10-23T10:32:04.009Z,72.88
2022-10-23T10:33:04.006Z,72.88
2022-10-23T10:34:04.006Z,72.77
2022-10-23T10:35:03.972Z,73.98
2022-10-23T10:36:03.985Z,73.48
2022-10-23T10:37:03.947Z,73.28
2022-10-23T10:38:03.931Z,73.68
2022-10-23T10:39:03.937Z,73.58
2022-10-23T10:40:03.907Z,73.68
2022-10-23T10:41:03.887Z,74.29
2022-10-23T10:42:03.896Z,74.08
2022-10-23T10:43:03.876Z,73.88
2022-10-23T10:44:03.881Z,73.68
2022-10-23T10:45:03.835Z,72.88
2022-10-23T10:46:03.937Z,73.68
2022-10-23T10:47:03.816Z,72.17
2022-10-23T10:48:03.816Z,73.38
2022-10-23T10:49:03.795Z,72.57
2022-10-23T10:50:03.789Z,73.48
2022-10-23T10:51:03.765Z,73.28
2022-10-23T10:52:03.756Z,73.38
2022-10-23T10:53:03.745Z,73.18
2022-10-23T10:54:03.805Z,73.48
2022-10-23T10:55:03.725Z,74.05
2022-10-23T10:56:03.733Z,73.65
2022-10-23T10:57:03.695Z,73.85
2022-10-23T10:58:03.676Z,73.75
2022-10-23T10:59:03.685Z,73.24
2022-10-23T11:00:03.654Z,72.94
2022-10-23T11:01:03.779Z,72.94
2022-10-23T11:02:03.706Z,73.24
2022-10-23T11:03:03.614Z,73.65
2022-10-23T11:04:03.615Z,72.84
2022-10-23T11:05:03.609Z,73.55
2022-10-23T11:06:03.579Z,73.75
2022-10-23T11:07:03.566Z,74.15
2022-10-23T11:08:03.554Z,73.95
2022-10-23T11:09:19.652Z,74.25
2022-10-23T11:10:04.515Z,73.35
2022-10-23T11:11:03.525Z,72.84
2022-10-23T11:12:03.513Z,72.44
2022-10-23T11:13:03.494Z,72.44
2022-10-23T11:14:03.483Z,72.34
2022-10-23T11:15:03.463Z,72.64
2022-10-23T11:16:03.443Z,73.95
2022-10-23T11:17:03.440Z,75.22
2022-10-23T11:18:03.422Z,75.12
2022-10-23T11:19:03.412Z,74.32
2022-10-23T11:20:03.393Z,73.41
2022-10-23T11:21:03.389Z,74.01
2022-10-23T11:22:03.376Z,73.11
2022-10-23T11:23:03.373Z,71.60
2022-10-23T11:24:03.408Z,71.90
2022-10-23T11:25:03.333Z,72.81
2022-10-23T11:26:03.312Z,72.91
2022-10-23T11:27:03.314Z,71.90
2022-10-23T11:28:05.282Z,71.90
2022-10-23T11:29:03.289Z,71.47
2022-10-23T11:30:04.000Z,71.36
2022-10-23T11:31:03.253Z,71.47
2022-10-23T11:32:03.246Z,71.47
2022-10-23T11:33:03.231Z,71.56
2022-10-23T11:34:03.223Z,72.17
2022-10-23T11:35:03.232Z,71.87
2022-10-23T11:36:03.185Z,70.96
2022-10-23T11:37:03.182Z,71.06
2022-10-23T11:38:03.180Z,71.67
2022-10-23T11:39:03.161Z,71.94
2022-10-23T11:40:03.146Z,72.84
2022-10-23T11:41:03.132Z,72.94
2022-10-23T11:42:03.112Z,72.03
2022-10-23T11:43:03.102Z,72.33
2022-10-23T11:44:03.102Z,71.13
2022-10-23T11:45:03.085Z,71.63
2022-10-23T11:46:03.066Z,70.32
2022-10-23T11:47:03.050Z,71.23
2022-10-23T11:48:03.181Z,71.53
2022-10-23T11:49:03.077Z,71.33
2022-10-23T11:50:03.014Z,70.73
2022-10-23T11:51:05.110Z,71.43
2022-10-23T11:52:02.995Z,71.23
2022-10-23T11:53:13.694Z,70.32
2022-10-23T11:54:03.969Z,70.63
2022-10-23T11:55:02.958Z,69.92
2022-10-23T11:56:02.931Z,69.82
2022-10-23T11:57:02.938Z,70.12
2022-10-23T11:58:02.907Z,71.03
2022-10-23T11:59:02.909Z,70.39
2022-10-23T12:00:02.879Z,69.49
2022-10-23T12:01:02.936Z,69.79
2022-10-23T12:02:02.875Z,69.49
2022-10-23T12:03:02.876Z,69.59
2022-10-23T12:04:02.848Z,69.59
2022-10-23T12:05:02.819Z,68.99
2022-10-23T12:06:02.806Z,68.29
2022-10-23T12:07:02.787Z,68.29
2022-10-23T12:08:02.773Z,68.08
2022-10-23T12:09:02.768Z,68.88
2022-10-23T12:10:02.748Z,68.99
2022-10-23T12:11:02.738Z,68.08
2022-10-23T12:12:02.721Z,69.59
2022-10-23T12:13:02.708Z,68.88
2022-10-23T12:14:02.755Z,68.38
2022-10-23T12:15:02.702Z,68.99
2022-10-23T12:16:02.679Z,69.39
2022-10-23T12:17:02.658Z,69.09
2022-10-23T12:18:02.650Z,68.29
2022-10-23T12:19:02.637Z,69.19
2022-10-23T12:20:02.628Z,68.29
2022-10-23T12:21:02.602Z,67.78
2022-10-23T12:22:02.597Z,68.29
2022-10-23T12:23:02.578Z,68.29
2022-10-23T12:24:02.579Z,67.98
2022-10-23T12:25:02.558Z,67.68
2022-10-23T12:26:02.550Z,68.05
2022-10-23T12:27:02.536Z,67.78
2022-10-23T12:28:02.533Z,68.18
2022-10-23T12:29:02.510Z,68.25
2022-10-23T12:30:02.501Z,68.35
2022-10-23T12:31:02.486Z,69.15
2022-10-23T12:32:02.468Z,68.85
2022-10-23T12:33:02.451Z,68.95
2022-10-23T12:34:02.471Z,67.75
2022-10-23T12:35:02.446Z,68.25
2022-10-23T12:36:02.417Z,68.76
2022-10-23T12:37:02.396Z,68.65
2022-10-23T12:38:02.391Z,69.56
2022-10-23T12:39:02.387Z,68.76
2022-10-23T12:40:02.360Z,68.62
2022-10-23T12:41:02.372Z,68.22
2022-10-23T12:42:02.336Z,68.12
2022-10-23T12:43:02.330Z,67.72
2022-10-23T12:44:02.330Z,68.42
2022-10-23T12:45:02.303Z,69.02
2022-10-23T12:46:02.287Z,68.72
2022-10-23T12:47:02.289Z,69.53
2022-10-23T12:48:02.277Z,69.02
2022-10-23T12:49:02.255Z,68.82
2022-10-23T12:50:02.235Z,68.72
2022-10-23T12:51:02.246Z,68.82
2022-10-23T12:52:02.215Z,68.42
2022-10-23T12:53:02.199Z,68.92
2022-10-23T12:54:02.196Z,68.02